地図

経路データ

SID SEASON NUMBER BASIN SUBBASIN NAME ISO_TIME NATURE LAT LON WMO_WIND WMO_PRES WMO_AGENCY TRACK_TYPE DIST2LAND LANDFALL IFLAG USA_AGENCY USA_ATCF_ID USA_LAT USA_LON USA_RECORD USA_STATUS USA_WIND USA_PRES USA_SSHS USA_R34_NE USA_R34_SE USA_R34_SW USA_R34_NW USA_R50_NE USA_R50_SE USA_R50_SW USA_R50_NW USA_R64_NE USA_R64_SE USA_R64_SW USA_R64_NW USA_POCI USA_ROCI USA_RMW USA_EYE TOKYO_LAT TOKYO_LON TOKYO_GRADE TOKYO_WIND TOKYO_PRES TOKYO_R50_DIR TOKYO_R50_LONG TOKYO_R50_SHORT TOKYO_R30_DIR TOKYO_R30_LONG TOKYO_R30_SHORT TOKYO_LAND CMA_LAT CMA_LON CMA_CAT CMA_WIND CMA_PRES HKO_LAT HKO_LON HKO_CAT HKO_WIND HKO_PRES NEWDELHI_LAT NEWDELHI_LON NEWDELHI_GRADE NEWDELHI_WIND NEWDELHI_PRES NEWDELHI_CI NEWDELHI_DP NEWDELHI_POCI REUNION_LAT REUNION_LON REUNION_TYPE REUNION_WIND REUNION_PRES REUNION_TNUM REUNION_CI REUNION_RMW REUNION_R34_NE REUNION_R34_SE REUNION_R34_SW REUNION_R34_NW REUNION_R50_NE REUNION_R50_SE REUNION_R50_SW REUNION_R50_NW REUNION_R64_NE REUNION_R64_SE REUNION_R64_SW REUNION_R64_NW BOM_LAT BOM_LON BOM_TYPE BOM_WIND BOM_PRES BOM_TNUM BOM_CI BOM_RMW BOM_R34_NE BOM_R34_SE BOM_R34_SW BOM_R34_NW BOM_R50_NE BOM_R50_SE BOM_R50_SW BOM_R50_NW BOM_R64_NE BOM_R64_SE BOM_R64_SW BOM_R64_NW BOM_ROCI BOM_POCI BOM_EYE BOM_POS_METHOD BOM_PRES_METHOD NADI_LAT NADI_LON NADI_CAT NADI_WIND NADI_PRES WELLINGTON_LAT WELLINGTON_LON WELLINGTON_WIND WELLINGTON_PRES DS824_LAT DS824_LON DS824_STAGE DS824_WIND DS824_PRES TD9636_LAT TD9636_LON TD9636_STAGE TD9636_WIND TD9636_PRES TD9635_LAT TD9635_LON TD9635_WIND TD9635_PRES TD9635_ROCI NEUMANN_LAT NEUMANN_LON NEUMANN_CLASS NEUMANN_WIND NEUMANN_PRES MLC_LAT MLC_LON MLC_CLASS MLC_WIND MLC_PRES USA_GUST BOM_GUST BOM_GUST_PER REUNION_GUST REUNION_GUST_PER USA_SEAHGT USA_SEARAD_NE USA_SEARAD_SE USA_SEARAD_SW USA_SEARAD_NW STORM_SPEED STORM_DIR
1898282N13085 1898 50 NI BB NOT_NAMED 1898-10-09 00:00:00 TS 13.2000 85.1000 main 485 485 _________O____ -1 13.2000 85.1000 TC 34 1 316
1898282N13085 1898 50 NI BB NOT_NAMED 1898-10-09 03:00:00 TS 13.2400 85.0667 main 485 469 _________PO___ -1 13.2600 85.0500 TC 36 13.2000 85.1000 2 1 316
1898282N13085 1898 50 NI BB NOT_NAMED 1898-10-09 06:00:00 TS 13.2756 85.0338 main 469 469 _________OP___ -1 13.3000 85.0000 TC 39 13.2389 85.0845 2 1 303
1898282N13085 1898 50 NI BB NOT_NAMED 1898-10-09 09:00:00 TS 13.2924 84.9837 main 469 463 _________PP___ -1 13.3074 84.9375 TC 42 13.2723 85.0452 2 2 278
1898282N13085 1898 50 NI BB NOT_NAMED 1898-10-09 12:00:00 TS 13.2973 84.8792 main 463 450 _________OP___ -1 13.3000 84.8000 TC 45 13.2945 84.9583 2 3 271
1898282N13085 1898 50 NI BB NOT_NAMED 1898-10-09 15:00:00 TS 13.2963 84.6650 main 450 432 _________PO___ -1 13.2925 84.5300 TC 45 13.3000 84.8000 3 5 270
1898282N13085 1898 50 NI BB NOT_NAMED 1898-10-09 18:00:00 TS 13.2943 84.3781 main 432 411 _________OP___ -1 13.3000 84.2000 TC 45 13.2887 84.5563 3 6 271
1898282N13085 1898 50 NI BB NOT_NAMED 1898-10-09 21:00:00 TS 13.3014 84.0722 main 411 378 _________PP___ -1 13.3200 83.8924 TC 45 13.2828 84.2520 3 6 276
1898282N13085 1898 50 NI BB NOT_NAMED 1898-10-10 00:00:00 TS 13.3553 83.7609 main 378 346 _________OP___ -1 13.4000 83.6000 TC 45 13.3105 83.9218 3 6 287
1898282N13085 1898 50 NI BB NOT_NAMED 1898-10-10 03:00:00 TS 13.4812 83.4712 main 346 313 _________PO___ -1 13.5625 83.3425 TC 45 13.4000 83.6000 3 6 303
1898282N13085 1898 50 NI BB NOT_NAMED 1898-10-10 06:00:00 TS 13.6864 83.2279 main 313 291 _________OP___ -1 13.8000 83.1000 TC 45 13.5728 83.3558 3 7 315
1898282N13085 1898 50 NI BB NOT_NAMED 1898-10-10 09:00:00 TS 13.9472 82.9973 main 291 263 _________PP___ -1 14.0849 82.8724 TC 45 13.8096 83.1222 3 7 320
1898282N13085 1898 50 NI BB NOT_NAMED 1898-10-10 12:00:00 TS 14.2458 82.7387 main 255 209 _________OP___ -1 14.4000 82.6000 TC 45 14.0915 82.8775 3 8 316
1898282N13085 1898 50 NI BB NOT_NAMED 1898-10-10 15:00:00 TS 14.5463 82.4075 main 209 155 _________PO___ -1 14.6926 82.2150 TC 45 14.4000 82.6000 3 9 311
1898282N13085 1898 50 NI BB NOT_NAMED 1898-10-10 18:00:00 TS 14.8560 82.0044 main 147 92 _________OP___ -1 15.0000 81.8000 TC 45 14.7121 82.2088 3 10 310
1898282N13085 1898 50 NI BB NOT_NAMED 1898-10-10 21:00:00 TS 15.2004 81.6018 main 92 46 _________PP___ -1 15.3575 81.4126 TC 45 15.0433 81.7911 3 10 313
1898282N13085 1898 50 NI BB NOT_NAMED 1898-10-11 00:00:00 TS 15.5389 81.2513 main 46 0 _________OP___ -1 15.7000 81.1000 TC 45 15.3777 81.4026 3 9 317
1898282N13085 1898 50 NI BB NOT_NAMED 1898-10-11 03:00:00 TS 15.8287 80.9949 main 0 0 _________PO___ -1 15.9574 80.8899 TC 41 15.7000 81.1000 3 7 325
1898282N13085 1898 50 NI BB NOT_NAMED 1898-10-11 06:00:00 TS 16.0964 80.8497 main 0 0 _________OP___ -1 16.2000 80.8000 TC 37 15.9929 80.8995 3 6 341
1898282N13085 1898 50 NI BB NOT_NAMED 1898-10-11 09:00:00 TS 16.3858 80.7900 main 0 0 _________PP___ -1 16.4999 80.7825 TC 33 16.2718 80.7974 3 6 0
1898282N13085 1898 50 NI BB NOT_NAMED 1898-10-11 12:00:00 TS 16.6699 80.8483 main 0 0 _________OP___ -1 16.8000 80.9000 TC 30 16.5398 80.7967 3 6 23
1898282N13085 1898 50 NI BB NOT_NAMED 1898-10-11 15:00:00 TS 16.9288 81.0312 main 0 0 _________PO___ -1 17.0576 81.1625 TC 30 16.8000 80.9000 1 7 40
1898282N13085 1898 50 NI BB NOT_NAMED 1898-10-11 18:00:00 TS 17.1807 81.2975 main 0 0 _________OP___ -1 17.3000 81.5000 TC 30 17.0614 81.0949 1 7 46
1898282N13085 1898 50 NI BB NOT_NAMED 1898-10-11 21:00:00 TS 17.4364 81.5898 main 0 0 _________PP___ -1 17.5574 81.7926 TC 30 17.3153 81.3870 1 8 50
1898282N13085 1898 50 NI BB NOT_NAMED 1898-10-12 00:00:00 TS 17.6807 81.9178 main 0 0 _________OP___ -1 17.8000 82.1000 TC 30 17.5614 81.7357 1 8 55
1898282N13085 1898 50 NI BB NOT_NAMED 1898-10-12 03:00:00 TS 17.9000 82.2751 main 0 0 _________PO___ -1 18.0000 82.4501 TC 30 17.8000 82.1000 1 8 57
1898282N13085 1898 50 NI BB NOT_NAMED 1898-10-12 06:00:00 TS 18.1181 82.6150 main 0 0 _________OP___ -1 18.2000 82.8000 TC 30 18.0363 82.4301 1 8 54
1898282N13085 1898 50 NI BB NOT_NAMED 1898-10-12 09:00:00 TS 18.3575 82.9400 main 0 0 _________PP___ -1 18.4499 83.1150 TC 30 18.2651 82.7651 1 8 52
1898282N13085 1898 50 NI BB NOT_NAMED 1898-10-12 12:00:00 TS 18.5931 83.2463 main 0 0 _________OP___ -1 18.7000 83.4000 TC 30 18.4863 83.0926 1 7 51
1898282N13085 1898 50 NI BB NOT_NAMED 1898-10-12 15:00:00 TS 18.8037 83.5288 main 0 0 _________PO___ -1 18.9074 83.6576 TC 30 18.7000 83.4000 1 6 52
1898282N13085 1898 50 NI BB NOT_NAMED 1898-10-12 18:00:00 TS 18.9933 83.7841 main 0 0 _________OP___ -1 19.1000 83.9000 TC 30 18.8866 83.6681 1 6 52
1898282N13085 1898 50 NI BB NOT_NAMED 1898-10-12 21:00:00 TS 19.1773 84.0293 main 0 0 _________PP___ -1 19.2849 84.1427 TC 30 19.0696 83.9159 1 6 50
1898282N13085 1898 50 NI BB NOT_NAMED 1898-10-13 00:00:00 TS 19.3839 84.2778 main 0 0 _________OP___ -1 19.5000 84.4000 TC 30 19.2679 84.1557 1 7 47
1898282N13085 1898 50 NI BB NOT_NAMED 1898-10-13 03:00:00 TS 19.6388 84.5500 main 0 0 _________PO___ -1 19.7775 84.7000 TC 30 19.5000 84.4000 1 8 43
1898282N13085 1898 50 NI BB NOT_NAMED 1898-10-13 06:00:00 TS 19.9384 84.8360 main 0 0 _________OP___ -1 20.1000 85.0000 TC 30 19.7769 84.6720 1 8 40
1898282N13085 1898 50 NI BB NOT_NAMED 1898-10-13 09:00:00 TS 20.2625 85.1039 main 0 0 _________PP___ -1 20.4349 85.2577 TC 30 20.0900 84.9502 1 8 36
1898282N13085 1898 50 NI BB NOT_NAMED 1898-10-13 12:00:00 TS 20.6166 85.3642 main 0 0 _________OP___ -1 20.8000 85.5000 TC 30 20.4331 85.2283 1 9 34
1898282N13085 1898 50 NI BB NOT_NAMED 1898-10-13 15:00:00 TS 20.9962 85.6250 main 0 0 _________PO___ -1 21.1925 85.7501 TC 30 20.8000 85.5000 1 9 31
1898282N13085 1898 50 NI BB NOT_NAMED 1898-10-13 18:00:00 TS 21.3952 85.8727 main 0 0 _________OP___ -1 21.6000 86.0000 TC 30 21.1903 85.7454 1 9 29
1898282N13085 1898 50 NI BB NOT_NAMED 1898-10-13 21:00:00 TS 21.8035 86.1141 main 0 0 _________PP___ -1 22.0074 86.2427 TC 30 21.5996 85.9855 1 9 29
1898282N13085 1898 50 NI BB NOT_NAMED 1898-10-14 00:00:00 TS 22.2045 86.3665 main 0 0 _________OP___ -1 22.4000 86.5000 TC 30 22.0090 86.2329 1 9 32
1898282N13085 1898 50 NI BB NOT_NAMED 1898-10-14 03:00:00 TS 22.5825 86.6426 main 0 0 _________PO___ -1 22.7649 86.7851 TC 30 22.4000 86.5000 1 9 36
1898282N13085 1898 50 NI BB NOT_NAMED 1898-10-14 06:00:00 TS 22.9271 86.9399 main 0 0 _________OP___ -1 23.1000 87.1000 TC 30 22.7543 86.7797 1 9 40
1898282N13085 1898 50 NI BB NOT_NAMED 1898-10-14 09:00:00 TS 23.2471 87.2556 main 0 0 _________PP___ -1 23.4074 87.4278 TC 30 23.0868 87.0835 1 9 45
1898282N13085 1898 50 NI BB NOT_NAMED 1898-10-14 12:00:00 TS 23.5505 87.6102 main 0 0 _________OP___ -1 23.7000 87.8000 TC 30 23.4010 87.4204 1 9 49
1898282N13085 1898 50 NI BB NOT_NAMED 1898-10-14 15:00:00 TS 23.8537 88.0138 main 0 0 _________PO___ -1 24.0074 88.2276 TC 30 23.7000 87.8000 1 9 53
1898282N13085 1898 50 NI BB NOT_NAMED 1898-10-14 18:00:00 TS 24.1211 88.4302 main 0 0 _________OP___ -1 24.3000 88.7000 TC 30 23.9869 88.2279 1 10 57
1898282N13085 1898 50 NI BB NOT_NAMED 1898-10-14 21:00:00 TS 24.3826 88.8952 main 0 0 _________PP___ -1 24.5603 89.1947 TC 30 24.2642 88.6955 1 10 59
1898282N13085 1898 50 NI BB NOT_NAMED 1898-10-15 00:00:00 TS 24.6229 89.3603 main 0 0 _________OP___ -1 24.8000 89.7000 TC 30 24.5344 89.1904 1 8 60
1898282N13085 1898 50 NI BB NOT_NAMED 1898-10-15 03:00:00 NR 24.8000 89.7000 main 0 __________O___ -1 TC 24.8000 89.7000 1 7 60

IBTrACS Databaseについて

本データベースは、米国NOAAが公開する1842年以降の世界の熱帯低気圧のベストトラックデータアーカイブInternational Best Track Archive for Climate Stewardship (IBTrACS)を、ウェブで閲覧しやすい形式に変換したものです。

最終更新日:2021-10-21